Linda Reed — WDE8222 — position and weather

sailwx.info

Track history (hours):
 
Tides and Currents Weather Stations Pressure Air Temp Water Temp Dewpoint Dewpoint Depression Visibility Wind Speed Wind Dir Waves Ship Positions

Linda Reed

Owner: Crounse Corporation, Maysville, KY. More information available from US FCC via Universal Licensing System and Coast Guard Vessel Documentation Center.

Last reported at 2015-May-03 23:21 UTC. Time now 2015-May-06 23:35 UTC.
Position N 39°08' W 084°46'.

Length 45 m.

Type: Tow > 200 m length. MMSI: 367402990.

Date/timePositionNaut miles runAvg speedWind from/ knotsBaromVisibWave heightAir tempDewpointWater temp
2015-May-03 23:21N 39°08' W 084°46'4 5.6
2015-May-03 22:33N 39°06' W 084°41'6 5.7
2015-May-03 21:33N 39°06' W 084°33'4 4.5
2015-May-03 20:33N 39°07' W 084°28'6 5.5
2015-May-03 19:32N 39°03' W 084°24'6 5.9
2015-May-03 18:33N 38°59' W 084°18'5 5.3
2015-May-03 17:33N 38°54' W 084°15'2 1.6
2015-May-03 16:31N 38°53' W 084°14'5 5.1
2015-May-03 15:32N 38°48' W 084°12'3 2.5
2015-May-03 14:32N 38°48' W 084°09'5 5.3
2015-May-03 13:32N 38°46' W 084°02'5 4.8
2015-May-03 12:31N 38°47' W 083°56'6 5.1
2015-May-03 11:18N 38°43' W 083°50'  
Track history (hours):
 
Tides and Currents Weather Stations Pressure Air Temp Water Temp Dewpoint Dewpoint Depression Visibility Wind Speed Wind Dir Waves Ship Positions

Linda Reed

Owner: Crounse Corporation, Maysville, KY. More information available from US FCC via Universal Licensing System and Coast Guard Vessel Documentation Center.

Last reported at 2015-May-03 23:21 UTC. Time now 2015-May-06 23:35 UTC.
Position N 39°08' W 084°46'.

Length 45 m.

Type: Tow > 200 m length. MMSI: 367402990.

Date/timePositionNaut miles runAvg speedWind from/ knotsBaromVisibWave heightAir tempDewpointWater temp
2015-May-03 23:21N 39°08' W 084°46'4 5.6
2015-May-03 22:33N 39°06' W 084°41'6 5.7
2015-May-03 21:33N 39°06' W 084°33'4 4.5
2015-May-03 20:33N 39°07' W 084°28'6 5.5
2015-May-03 19:32N 39°03' W 084°24'6 5.9
2015-May-03 18:33N 38°59' W 084°18'5 5.3
2015-May-03 17:33N 38°54' W 084°15'2 1.6
2015-May-03 16:31N 38°53' W 084°14'5 5.1
2015-May-03 15:32N 38°48' W 084°12'3 2.5
2015-May-03 14:32N 38°48' W 084°09'5 5.3
2015-May-03 13:32N 38°46' W 084°02'5 4.8
2015-May-03 12:31N 38°47' W 083°56'6 5.1
2015-May-03 11:18N 38°43' W 083°50'  

Dump ship's entire track history